createdAt,value
2023-01-09T00:00:54.216Z,99.90
2023-01-09T00:03:21.322Z,99.90
2023-01-09T00:05:48.010Z,99.90
2023-01-09T00:08:14.642Z,99.90
2023-01-09T00:10:41.447Z,99.90
2023-01-09T00:13:11.296Z,99.90
2023-01-09T00:15:38.900Z,99.90
2023-01-09T00:18:05.890Z,99.90
2023-01-09T00:20:32.543Z,99.90
2023-01-09T00:23:01.555Z,99.90
2023-01-09T00:25:30.668Z,99.90
2023-01-09T00:27:57.496Z,99.90
2023-01-09T00:30:24.909Z,99.90
2023-01-09T00:32:51.674Z,99.90
2023-01-09T00:35:18.776Z,99.90
2023-01-09T00:37:45.848Z,99.90
2023-01-09T00:40:14.196Z,99.90
2023-01-09T00:42:41.069Z,99.90
2023-01-09T00:45:11.540Z,99.90
2023-01-09T00:47:43.030Z,99.90
2023-01-09T00:50:17.178Z,99.90
2023-01-09T00:52:44.243Z,99.90
2023-01-09T00:55:11.324Z,99.90
2023-01-09T00:57:38.028Z,99.90
2023-01-09T01:00:05.556Z,99.90
2023-01-09T01:02:32.402Z,99.90
2023-01-09T01:05:17.724Z,99.90
2023-01-09T01:07:44.990Z,99.90
2023-01-09T01:10:21.082Z,99.90
2023-01-09T01:12:49.099Z,99.90
2023-01-09T01:15:16.593Z,99.90
2023-01-09T01:17:43.907Z,99.90
2023-01-09T01:20:13.188Z,99.90
2023-01-09T01:22:42.355Z,99.90
2023-01-09T01:25:11.091Z,99.90
2023-01-09T01:27:37.977Z,99.90
2023-01-09T01:30:06.016Z,99.90
2023-01-09T01:32:32.701Z,99.90
2023-01-09T01:34:59.328Z,99.90
2023-01-09T01:37:27.729Z,99.90
2023-01-09T01:39:54.428Z,99.90
2023-01-09T01:42:21.372Z,99.90
2023-01-09T01:45:09.984Z,99.90
2023-01-09T01:48:11.798Z,99.90
2023-01-09T01:50:52.147Z,99.90
2023-01-09T01:53:28.517Z,99.90
2023-01-09T01:56:06.140Z,99.90
2023-01-09T01:58:40.583Z,99.90
2023-01-09T02:01:07.531Z,99.90
2023-01-09T02:03:34.551Z,99.90
2023-01-09T02:06:04.374Z,99.90
2023-01-09T02:08:31.677Z,99.90
2023-01-09T02:10:58.646Z,99.90
2023-01-09T02:13:26.228Z,99.90
2023-01-09T02:16:17.244Z,99.90
2023-01-09T02:18:52.186Z,99.90
2023-01-09T02:21:56.245Z,99.90
2023-01-09T02:24:38.395Z,99.90
2023-01-09T02:27:29.300Z,99.90
2023-01-09T02:30:33.920Z,99.90
2023-01-09T02:33:29.666Z,99.90
2023-01-09T02:36:10.888Z,99.90
2023-01-09T02:38:50.883Z,99.90
2023-01-09T02:41:31.256Z,99.90
2023-01-09T02:44:24.283Z,99.90
2023-01-09T02:47:16.941Z,99.90
2023-01-09T02:49:57.486Z,99.90
2023-01-09T02:52:47.683Z,99.90
2023-01-09T02:55:40.617Z,99.90
2023-01-09T02:58:11.438Z,99.90
2023-01-09T03:00:45.876Z,99.90
2023-01-09T03:03:20.860Z,99.90
2023-01-09T03:05:59.101Z,99.90
2023-01-09T03:08:32.211Z,99.90
2023-01-09T03:11:01.429Z,99.90
2023-01-09T03:13:32.739Z,99.90
2023-01-09T03:16:01.278Z,99.90
2023-01-09T03:18:29.949Z,99.90
2023-01-09T03:20:56.760Z,99.90
2023-01-09T03:23:23.428Z,99.90
2023-01-09T03:25:50.093Z,99.90
2023-01-09T03:28:29.713Z,99.90
2023-01-09T03:30:56.372Z,99.90
2023-01-09T03:33:23.019Z,99.90
2023-01-09T03:35:49.956Z,99.90
2023-01-09T03:38:16.606Z,99.90
2023-01-09T03:40:43.756Z,99.90
2023-01-09T03:43:10.587Z,99.90
2023-01-09T03:45:37.404Z,99.90
2023-01-09T03:48:04.483Z,99.90
2023-01-09T03:50:31.192Z,99.90
2023-01-09T03:52:57.851Z,99.90
2023-01-09T03:55:24.585Z,99.90
2023-01-09T03:57:52.722Z,99.90
2023-01-09T04:00:20.448Z,99.90
2023-01-09T04:02:47.623Z,99.90
2023-01-09T04:05:14.339Z,99.90
2023-01-09T04:07:41.020Z,99.90
2023-01-09T04:10:08.198Z,99.90
2023-01-09T04:12:34.898Z,99.90
2023-01-09T04:15:01.633Z,99.90
2023-01-09T04:17:28.315Z,99.90
2023-01-09T04:19:54.929Z,99.90
2023-01-09T04:22:21.591Z,99.90
2023-01-09T04:24:48.268Z,99.90
2023-01-09T04:27:14.877Z,99.90
2023-01-09T04:29:41.528Z,99.90
2023-01-09T04:32:08.292Z,99.90
2023-01-09T04:34:34.999Z,99.90
2023-01-09T04:37:01.642Z,99.90
2023-01-09T04:39:28.309Z,99.90
2023-01-09T04:41:55.029Z,99.90
2023-01-09T04:44:25.743Z,99.90
2023-01-09T04:46:53.224Z,99.90
2023-01-09T04:49:20.311Z,99.90
2023-01-09T04:51:47.057Z,99.90
2023-01-09T04:54:13.876Z,99.90
2023-01-09T04:56:40.663Z,99.90
2023-01-09T04:59:08.904Z,99.90
2023-01-09T05:01:36.084Z,99.90
2023-01-09T05:04:03.640Z,99.90
2023-01-09T05:06:30.663Z,99.90
2023-01-09T05:08:57.584Z,99.90
2023-01-09T05:11:25.447Z,99.90
2023-01-09T05:13:52.924Z,99.90
2023-01-09T05:16:19.950Z,99.90
2023-01-09T05:18:46.709Z,99.90
2023-01-09T05:21:14.156Z,99.90
2023-01-09T05:23:41.182Z,99.90
2023-01-09T05:26:07.814Z,99.90
2023-01-09T05:28:34.564Z,99.90
2023-01-09T05:31:01.235Z,99.90
2023-01-09T05:33:27.998Z,99.90
2023-01-09T05:35:54.700Z,99.90
2023-01-09T05:38:21.414Z,99.90
2023-01-09T05:40:48.162Z,99.90
2023-01-09T05:43:15.192Z,99.90
2023-01-09T05:45:41.912Z,99.90
2023-01-09T05:48:08.700Z,99.90
2023-01-09T05:50:35.483Z,99.90
2023-01-09T05:53:02.434Z,99.90
2023-01-09T05:55:29.364Z,99.90
2023-01-09T05:57:56.046Z,99.90
2023-01-09T06:00:22.941Z,99.90
2023-01-09T06:02:49.613Z,99.90
2023-01-09T06:05:16.330Z,98.60
2023-01-09T06:07:43.036Z,96.30
2023-01-09T06:10:12.235Z,99.90
2023-01-09T06:12:39.152Z,99.90
2023-01-09T06:15:08.736Z,97.90
2023-01-09T06:17:35.886Z,99.90
2023-01-09T06:20:02.822Z,99.90
2023-01-09T06:22:29.470Z,99.90
2023-01-09T06:24:56.381Z,99.60
2023-01-09T06:27:22.987Z,99.40
2023-01-09T06:29:49.717Z,99.70
2023-01-09T06:32:16.415Z,99.90
2023-01-09T06:34:43.072Z,99.80
2023-01-09T06:37:09.917Z,99.30
2023-01-09T06:39:36.772Z,99.90
2023-01-09T06:42:04.095Z,99.90
2023-01-09T06:44:30.779Z,99.90
2023-01-09T06:46:57.409Z,99.90
2023-01-09T06:49:24.847Z,99.90
2023-01-09T06:51:51.811Z,99.90
2023-01-09T06:54:18.973Z,99.90
2023-01-09T06:56:45.665Z,99.90
2023-01-09T06:59:12.935Z,99.90
2023-01-09T07:01:39.933Z,99.90
2023-01-09T07:04:08.158Z,99.90
2023-01-09T07:06:34.920Z,99.90
2023-01-09T07:09:01.674Z,99.90
2023-01-09T07:11:28.283Z,99.20
2023-01-09T07:13:54.910Z,99.90
2023-01-09T07:16:21.562Z,99.70
2023-01-09T07:18:48.229Z,97.60
2023-01-09T07:21:14.878Z,96.20
2023-01-09T07:23:41.516Z,98.60
2023-01-09T07:26:08.987Z,99.10
2023-01-09T07:28:35.642Z,99.90
2023-01-09T07:31:04.428Z,99.80
2023-01-09T07:33:31.113Z,99.90
2023-01-09T07:35:57.852Z,99.90
2023-01-09T07:38:24.519Z,99.90
2023-01-09T07:40:51.343Z,99.90
2023-01-09T07:43:18.221Z,99.90
2023-01-09T07:45:46.541Z,99.90
2023-01-09T07:48:13.838Z,99.90
2023-01-09T07:50:40.569Z,99.90
2023-01-09T07:53:07.266Z,99.90
2023-01-09T07:55:33.965Z,99.10
2023-01-09T07:58:00.660Z,99.80
2023-01-09T08:00:27.912Z,99.00
2023-01-09T08:02:54.903Z,99.90
2023-01-09T08:05:22.128Z,99.90
2023-01-09T08:07:50.792Z,99.90
2023-01-09T08:10:21.394Z,99.90
2023-01-09T08:12:49.099Z,99.90
2023-01-09T08:15:16.546Z,99.90
2023-01-09T08:17:44.752Z,99.90
2023-01-09T08:20:12.975Z,99.90
2023-01-09T08:22:41.444Z,99.90
2023-01-09T08:25:11.251Z,99.90
2023-01-09T08:27:38.910Z,99.90
2023-01-09T08:30:06.350Z,99.90
2023-01-09T08:32:33.097Z,99.90
2023-01-09T08:34:59.972Z,99.90
2023-01-09T08:37:26.721Z,99.90
2023-01-09T08:39:53.530Z,99.90
2023-01-09T08:42:39.349Z,99.90
2023-01-09T08:45:25.294Z,99.90
2023-01-09T08:47:52.172Z,99.90
2023-01-09T08:50:19.051Z,99.90
2023-01-09T08:52:45.770Z,99.90
2023-01-09T08:55:12.543Z,99.90
2023-01-09T08:57:50.711Z,99.90
2023-01-09T09:00:18.966Z,99.90
2023-01-09T09:02:46.014Z,99.90
2023-01-09T09:05:12.785Z,99.90
2023-01-09T09:07:39.569Z,99.90
2023-01-09T09:10:06.618Z,99.90
2023-01-09T09:12:33.319Z,99.90
2023-01-09T09:15:38.390Z,99.90
2023-01-09T09:18:07.123Z,99.90
2023-01-09T09:20:38.540Z,99.90
2023-01-09T09:23:05.867Z,99.90
2023-01-09T09:25:32.617Z,99.00
2023-01-09T09:28:01.228Z,99.50
2023-01-09T09:30:28.529Z,99.80
2023-01-09T09:32:55.425Z,99.20
2023-01-09T09:35:22.599Z,99.90
2023-01-09T09:38:03.224Z,99.90
2023-01-09T09:41:01.927Z,99.30
2023-01-09T09:44:00.002Z,99.90
2023-01-09T09:47:01.956Z,99.90
2023-01-09T09:49:42.772Z,99.90
2023-01-09T09:52:36.909Z,99.90
2023-01-09T09:55:34.728Z,99.90
2023-01-09T09:58:07.841Z,99.90
2023-01-09T10:00:34.654Z,99.90
2023-01-09T10:03:33.065Z,99.90
2023-01-09T10:06:01.088Z,99.90
2023-01-09T10:09:06.016Z,99.90
2023-01-09T10:11:43.070Z,99.90
2023-01-09T10:14:23.343Z,99.90
2023-01-09T10:17:13.096Z,99.90
2023-01-09T10:20:04.165Z,99.90
2023-01-09T10:22:41.515Z,99.90
2023-01-09T10:25:17.223Z,99.90
2023-01-09T10:28:00.922Z,99.90
2023-01-09T10:30:39.905Z,99.90
2023-01-09T10:33:29.545Z,99.90
2023-01-09T10:36:14.842Z,99.90
2023-01-09T10:38:45.269Z,98.90
2023-01-09T10:41:32.124Z,99.90
2023-01-09T10:44:06.787Z,99.90
2023-01-09T10:46:42.127Z,99.90
2023-01-09T10:49:15.203Z,99.90
2023-01-09T10:51:50.869Z,99.90
2023-01-09T10:54:21.469Z,99.90
2023-01-09T10:57:16.736Z,99.90
2023-01-09T10:59:43.537Z,99.90
2023-01-09T11:02:32.525Z,99.90
2023-01-09T11:04:59.324Z,99.90
2023-01-09T11:07:29.575Z,99.90
2023-01-09T11:10:12.234Z,99.90
2023-01-09T11:12:39.827Z,99.90
2023-01-09T11:15:15.741Z,98.50
2023-01-09T11:17:47.295Z,98.60
2023-01-09T11:20:21.828Z,99.90
2023-01-09T11:22:54.898Z,99.90
2023-01-09T11:25:23.788Z,99.90
2023-01-09T11:28:02.653Z,99.90
2023-01-09T11:31:01.855Z,98.40
2023-01-09T11:33:37.073Z,98.00
2023-01-09T11:36:08.370Z,98.90
2023-01-09T11:38:48.504Z,97.50
2023-01-09T11:41:22.365Z,98.50
2023-01-09T11:43:51.551Z,99.90
2023-01-09T11:46:32.443Z,98.40
2023-01-09T11:49:00.207Z,97.70
2023-01-09T11:51:31.062Z,97.60
2023-01-09T11:54:01.140Z,99.30
2023-01-09T11:56:27.975Z,99.30
2023-01-09T11:58:54.803Z,95.70
2023-01-09T12:01:36.074Z,96.60
2023-01-09T12:04:30.951Z,97.40
2023-01-09T12:07:06.936Z,94.90
2023-01-09T12:09:55.437Z,94.20
2023-01-09T12:12:35.926Z,93.00
2023-01-09T12:15:17.569Z,92.70
2023-01-09T12:18:12.650Z,94.30
2023-01-09T12:20:51.650Z,95.00
2023-01-09T12:23:42.206Z,93.60
2023-01-09T12:26:17.881Z,93.90
2023-01-09T12:29:17.878Z,93.10
2023-01-09T12:32:12.468Z,90.30
2023-01-09T12:35:17.390Z,90.50
2023-01-09T12:37:56.432Z,91.80
2023-01-09T12:40:35.662Z,91.80
2023-01-09T12:43:38.477Z,91.70
2023-01-09T12:46:22.117Z,92.30
2023-01-09T12:49:10.634Z,92.80
2023-01-09T12:52:04.149Z,93.90
2023-01-09T12:54:52.113Z,94.50
2023-01-09T12:57:28.604Z,94.60
2023-01-09T13:00:22.353Z,95.10
2023-01-09T13:03:13.243Z,95.70
2023-01-09T13:05:44.070Z,93.70
2023-01-09T13:08:30.304Z,92.50
2023-01-09T13:11:19.429Z,92.50
2023-01-09T13:13:57.356Z,91.70
2023-01-09T13:16:28.878Z,93.10
2023-01-09T13:19:00.582Z,92.60
2023-01-09T13:21:27.831Z,92.80
2023-01-09T13:24:04.312Z,92.90
2023-01-09T13:26:44.320Z,92.40
2023-01-09T13:29:28.815Z,92.80
2023-01-09T13:32:32.100Z,93.20
2023-01-09T13:34:59.088Z,92.00
2023-01-09T13:37:27.219Z,92.50
2023-01-09T13:40:02.634Z,92.60
2023-01-09T13:42:36.149Z,92.80
2023-01-09T13:45:23.914Z,93.30
2023-01-09T13:48:14.593Z,92.40
2023-01-09T13:50:42.347Z,93.10
2023-01-09T13:53:18.343Z,93.80
2023-01-09T13:55:57.804Z,94.00
2023-01-09T13:58:28.179Z,94.00
2023-01-09T14:01:00.666Z,93.80
2023-01-09T14:03:33.969Z,93.30
2023-01-09T14:06:00.682Z,91.80
2023-01-09T14:08:29.447Z,91.90
2023-01-09T14:11:06.568Z,93.30
2023-01-09T14:13:37.342Z,92.40
2023-01-09T14:16:09.264Z,92.80
2023-01-09T14:18:38.667Z,93.60
2023-01-09T14:21:11.318Z,94.10
2023-01-09T14:23:52.841Z,94.30
2023-01-09T14:26:25.204Z,94.00
2023-01-09T14:28:52.041Z,93.70
2023-01-09T14:31:32.555Z,92.80
2023-01-09T14:34:30.931Z,91.50
2023-01-09T14:36:59.869Z,91.40
2023-01-09T14:39:27.382Z,92.40
2023-01-09T14:42:07.791Z,91.40
2023-01-09T14:44:45.666Z,91.00
2023-01-09T14:47:23.358Z,90.40
2023-01-09T14:49:59.392Z,89.00
2023-01-09T14:52:31.977Z,89.20
2023-01-09T14:55:01.777Z,90.30
2023-01-09T14:57:36.251Z,91.00
2023-01-09T15:00:18.427Z,92.30
2023-01-09T15:02:46.698Z,91.60
2023-01-09T15:05:19.583Z,93.50
2023-01-09T15:08:01.458Z,92.10
2023-01-09T15:10:33.330Z,92.10
2023-01-09T15:13:02.093Z,93.10
2023-01-09T15:15:29.284Z,93.50
2023-01-09T15:18:05.900Z,94.00
2023-01-09T15:20:34.286Z,94.30
2023-01-09T15:23:04.136Z,94.70
2023-01-09T15:25:38.921Z,94.20
2023-01-09T15:28:27.031Z,95.00
2023-01-09T15:31:26.617Z,94.00
2023-01-09T15:33:54.180Z,94.70
2023-01-09T15:36:24.900Z,94.40
2023-01-09T15:38:52.848Z,94.50
2023-01-09T15:41:43.786Z,95.30
2023-01-09T15:44:26.595Z,96.00
2023-01-09T15:46:57.427Z,96.20
2023-01-09T15:49:24.566Z,95.70
2023-01-09T15:51:51.697Z,96.00
2023-01-09T15:54:25.377Z,95.40
2023-01-09T15:56:52.229Z,95.80
2023-01-09T15:59:27.405Z,96.40
2023-01-09T16:02:19.922Z,97.00
2023-01-09T16:04:47.396Z,97.30
2023-01-09T16:07:16.137Z,97.00
2023-01-09T16:09:47.971Z,96.90
2023-01-09T16:12:22.255Z,98.10
2023-01-09T16:14:55.273Z,97.40
2023-01-09T16:17:26.708Z,98.00
2023-01-09T16:19:58.227Z,97.70
2023-01-09T16:22:29.078Z,97.50
2023-01-09T16:25:01.018Z,97.80
2023-01-09T16:27:30.820Z,98.30
2023-01-09T16:30:19.559Z,97.60
2023-01-09T16:32:48.032Z,98.10
2023-01-09T16:35:20.309Z,97.50
2023-01-09T16:37:47.488Z,98.00
2023-01-09T16:40:14.497Z,97.70
2023-01-09T16:43:00.104Z,97.60
2023-01-09T16:45:34.293Z,97.80
2023-01-09T16:48:10.140Z,98.00
2023-01-09T16:50:36.845Z,98.20
2023-01-09T16:53:22.105Z,98.00
2023-01-09T16:55:49.020Z,98.20
2023-01-09T16:58:22.150Z,98.40
2023-01-09T17:00:48.994Z,98.60
2023-01-09T17:03:16.686Z,99.50
2023-01-09T17:05:43.912Z,99.50
2023-01-09T17:08:31.484Z,99.70
2023-01-09T17:10:58.537Z,99.90
2023-01-09T17:13:25.646Z,99.90
2023-01-09T17:15:53.261Z,99.30
2023-01-09T17:18:22.479Z,99.70
2023-01-09T17:20:51.763Z,99.50
2023-01-09T17:23:20.966Z,99.60
2023-01-09T17:26:07.203Z,99.90
2023-01-09T17:28:34.583Z,99.20
2023-01-09T17:31:06.746Z,99.40
2023-01-09T17:33:33.726Z,99.60
2023-01-09T17:36:02.707Z,99.90
2023-01-09T17:38:29.776Z,99.90
2023-01-09T17:40:56.595Z,99.90
2023-01-09T17:43:23.468Z,99.90
2023-01-09T17:45:50.349Z,99.90
2023-01-09T17:48:19.636Z,99.50
2023-01-09T17:50:47.052Z,99.10
2023-01-09T17:53:14.469Z,99.80
2023-01-09T17:55:42.203Z,98.90
2023-01-09T17:58:23.621Z,99.90
2023-01-09T18:00:50.428Z,99.40
2023-01-09T18:03:17.148Z,99.90
2023-01-09T18:05:44.102Z,98.10
2023-01-09T18:08:13.378Z,98.30
2023-01-09T18:10:40.607Z,98.10
2023-01-09T18:13:08.823Z,97.50
2023-01-09T18:15:35.544Z,99.20
2023-01-09T18:18:02.213Z,99.90
2023-01-09T18:20:29.010Z,99.90
2023-01-09T18:22:55.728Z,99.90
2023-01-09T18:25:22.399Z,99.90
2023-01-09T18:27:49.544Z,99.90
2023-01-09T18:30:16.374Z,99.90
2023-01-09T18:32:43.789Z,99.90
2023-01-09T18:35:10.602Z,99.90
2023-01-09T18:37:37.384Z,99.90
2023-01-09T18:40:04.556Z,99.90
2023-01-09T18:42:31.319Z,99.90
2023-01-09T18:44:58.033Z,99.90
2023-01-09T18:47:24.755Z,99.90
2023-01-09T18:49:51.672Z,99.90
2023-01-09T18:52:18.540Z,99.90
2023-01-09T18:54:45.303Z,99.90
2023-01-09T18:57:12.418Z,99.90
2023-01-09T18:59:39.154Z,99.90
2023-01-09T19:02:06.900Z,99.90
2023-01-09T19:04:33.804Z,99.90
2023-01-09T19:07:00.674Z,99.90
2023-01-09T19:09:27.431Z,99.90
2023-01-09T19:11:54.306Z,99.90
2023-01-09T19:14:20.995Z,99.90
2023-01-09T19:16:47.815Z,99.90
2023-01-09T19:19:14.508Z,99.90
2023-01-09T19:21:41.266Z,99.90
2023-01-09T19:24:08.198Z,99.90
2023-01-09T19:26:35.075Z,99.90
2023-01-09T19:29:01.834Z,99.90
2023-01-09T19:31:29.232Z,99.90
2023-01-09T19:33:56.622Z,99.90
2023-01-09T19:36:23.707Z,99.90
2023-01-09T19:38:56.901Z,99.90
2023-01-09T19:41:23.581Z,99.90
2023-01-09T19:43:51.022Z,99.90
2023-01-09T19:46:20.604Z,99.90
2023-01-09T19:48:47.909Z,99.90
2023-01-09T19:51:16.129Z,99.90
2023-01-09T19:53:42.917Z,99.90
2023-01-09T19:56:29.272Z,99.90
2023-01-09T19:59:01.016Z,99.90
2023-01-09T20:01:30.300Z,99.90
2023-01-09T20:03:58.668Z,99.90
2023-01-09T20:06:26.396Z,99.90
2023-01-09T20:08:58.126Z,99.90
2023-01-09T20:11:26.873Z,99.90
2023-01-09T20:13:55.379Z,99.90
2023-01-09T20:16:28.155Z,99.90
2023-01-09T20:18:58.542Z,99.90
2023-01-09T20:21:26.836Z,99.90
2023-01-09T20:23:55.560Z,99.90
2023-01-09T20:26:22.884Z,99.90
2023-01-09T20:28:49.692Z,99.90
2023-01-09T20:31:18.494Z,99.90
2023-01-09T20:33:46.781Z,99.90
2023-01-09T20:36:13.719Z,99.90
2023-01-09T20:38:41.321Z,99.90
2023-01-09T20:41:09.874Z,99.90
2023-01-09T20:43:37.610Z,99.90
2023-01-09T20:46:05.093Z,99.90
2023-01-09T20:48:31.904Z,99.90
2023-01-09T20:51:06.778Z,99.90
2023-01-09T20:53:34.086Z,99.90
2023-01-09T20:56:05.155Z,99.90
2023-01-09T20:58:31.939Z,99.90
2023-01-09T21:01:08.954Z,99.90
2023-01-09T21:03:35.725Z,99.90
2023-01-09T21:06:07.296Z,99.90
2023-01-09T21:08:34.272Z,99.90
2023-01-09T21:11:01.505Z,99.90
2023-01-09T21:13:28.420Z,99.90
2023-01-09T21:15:59.760Z,99.90
2023-01-09T21:18:26.437Z,99.90
2023-01-09T21:20:53.223Z,99.90
2023-01-09T21:23:21.269Z,99.90
2023-01-09T21:25:48.899Z,99.90
2023-01-09T21:28:19.608Z,99.90
2023-01-09T21:30:49.654Z,99.90
2023-01-09T21:33:23.178Z,99.90
2023-01-09T21:35:57.823Z,99.90
2023-01-09T21:38:26.221Z,99.90
2023-01-09T21:40:53.955Z,99.90
2023-01-09T21:43:49.369Z,99.90
2023-01-09T21:46:36.281Z,99.90
2023-01-09T21:49:06.468Z,99.90
2023-01-09T21:51:38.849Z,99.90
2023-01-09T21:54:05.612Z,99.90
2023-01-09T21:56:32.304Z,99.90
2023-01-09T21:58:58.951Z,99.90
2023-01-09T22:01:25.638Z,99.90
2023-01-09T22:03:56.329Z,99.90
2023-01-09T22:06:23.434Z,99.90
2023-01-09T22:08:50.085Z,99.90
2023-01-09T22:11:16.789Z,99.90
2023-01-09T22:13:47.944Z,99.90
2023-01-09T22:16:14.718Z,99.90
2023-01-09T22:18:41.415Z,99.90
2023-01-09T22:21:08.231Z,99.90
2023-01-09T22:23:34.971Z,99.90
2023-01-09T22:26:08.851Z,99.90
2023-01-09T22:28:35.710Z,99.90
2023-01-09T22:31:02.514Z,99.90
2023-01-09T22:33:29.197Z,99.90
2023-01-09T22:35:55.961Z,99.90
2023-01-09T22:38:22.632Z,99.90
2023-01-09T22:40:49.964Z,99.90
2023-01-09T22:43:17.279Z,99.90
2023-01-09T22:45:44.392Z,99.90
2023-01-09T22:48:11.117Z,99.90
2023-01-09T22:50:37.827Z,99.90
2023-01-09T22:53:04.495Z,99.90
2023-01-09T22:55:31.180Z,99.90
2023-01-09T22:57:57.932Z,99.90
2023-01-09T23:00:24.632Z,99.90
2023-01-09T23:02:51.344Z,99.90
2023-01-09T23:05:19.665Z,99.90
2023-01-09T23:07:46.510Z,99.90
2023-01-09T23:10:13.145Z,99.90
2023-01-09T23:12:39.808Z,99.90
2023-01-09T23:15:08.922Z,99.90
2023-01-09T23:17:35.596Z,99.90
2023-01-09T23:20:02.243Z,99.90
2023-01-09T23:22:28.885Z,99.90
2023-01-09T23:24:55.512Z,99.90
2023-01-09T23:27:22.318Z,99.90
2023-01-09T23:29:49.055Z,99.90
2023-01-09T23:32:15.835Z,99.90
2023-01-09T23:34:42.939Z,99.90
2023-01-09T23:37:09.738Z,99.90
2023-01-09T23:39:36.561Z,99.90
2023-01-09T23:42:22.138Z,99.90
2023-01-09T23:44:48.905Z,99.90
2023-01-09T23:47:15.533Z,99.90
2023-01-09T23:49:42.156Z,99.90
2023-01-09T23:52:08.901Z,99.90
2023-01-09T23:54:36.513Z,99.90
2023-01-09T23:57:03.214Z,99.90
2023-01-09T23:59:29.922Z,99.90
